createdAt,value
2022-08-01T00:00:17.981Z,2.30
2022-08-01T00:02:44.651Z,3.25
2022-08-01T00:05:11.860Z,3.83
2022-08-01T00:07:38.610Z,2.65
2022-08-01T00:10:07.066Z,2.92
2022-08-01T00:12:33.692Z,4.55
2022-08-01T00:15:00.378Z,2.63
2022-08-01T00:17:27.031Z,3.40
2022-08-01T00:19:53.660Z,3.53
2022-08-01T00:22:20.260Z,3.70
2022-08-01T00:24:46.867Z,3.00
2022-08-01T00:27:13.350Z,3.70
2022-08-01T00:30:09.701Z,5.43
2022-08-01T00:32:26.613Z,4.45
2022-08-01T00:34:53.238Z,6.57
2022-08-01T00:37:19.896Z,4.47
2022-08-01T00:39:46.516Z,4.07
2022-08-01T00:42:14.049Z,3.45
2022-08-01T00:44:41.403Z,4.38
2022-08-01T00:47:08.452Z,3.75
2022-08-01T00:49:35.377Z,3.35
2022-08-01T00:52:05.715Z,3.97
2022-08-01T00:54:33.087Z,5.00
2022-08-01T00:56:59.997Z,5.05
2022-08-01T00:59:27.695Z,3.58
2022-08-01T01:01:54.718Z,3.78
2022-08-01T01:04:21.443Z,3.72
2022-08-01T01:07:05.319Z,4.15
2022-08-01T01:09:45.723Z,3.60
2022-08-01T01:12:33.046Z,5.25
2022-08-01T01:15:19.802Z,3.70
2022-08-01T01:18:08.236Z,4.45
2022-08-01T01:20:38.468Z,3.20
2022-08-01T01:23:26.599Z,3.03
2022-08-01T01:26:18.493Z,5.07
2022-08-01T01:28:56.602Z,4.85
2022-08-01T01:31:26.343Z,3.63
2022-08-01T01:33:54.973Z,4.43
2022-08-01T01:36:23.125Z,4.30
2022-08-01T01:38:52.119Z,3.90
2022-08-01T01:41:19.816Z,5.97
2022-08-01T01:43:47.855Z,3.83
2022-08-01T01:46:18.864Z,4.32
2022-08-01T01:48:48.674Z,4.93
2022-08-01T01:51:35.246Z,3.30
2022-08-01T01:54:03.778Z,3.80
2022-08-01T01:56:32.024Z,6.07
2022-08-01T01:59:02.154Z,5.25
2022-08-01T02:01:58.156Z,4.43
2022-08-01T02:04:20.937Z,5.13
2022-08-01T02:06:48.238Z,3.85
2022-08-01T02:09:19.636Z,4.63
2022-08-01T02:12:07.206Z,7.07
2022-08-01T02:14:38.922Z,3.90
2022-08-01T02:17:05.660Z,4.07
2022-08-01T02:19:38.133Z,3.38
2022-08-01T02:22:12.788Z,5.28
2022-08-01T02:24:42.235Z,4.32
2022-08-01T02:27:39.154Z,4.20
2022-08-01T02:30:09.535Z,4.38
2022-08-01T02:32:42.415Z,3.63
2022-08-01T02:35:14.379Z,4.05
2022-08-01T02:37:47.021Z,4.97
2022-08-01T02:40:15.426Z,6.00
2022-08-01T02:42:48.591Z,5.05
2022-08-01T02:45:18.743Z,3.55
2022-08-01T02:47:46.902Z,6.22
2022-08-01T02:50:15.550Z,4.90
2022-08-01T02:52:44.789Z,3.53
2022-08-01T02:55:12.394Z,5.10
2022-08-01T02:57:52.414Z,3.85
2022-08-01T03:00:20.377Z,3.20
2022-08-01T03:02:55.703Z,3.42
2022-08-01T03:05:23.573Z,3.72
2022-08-01T03:07:51.304Z,4.75
2022-08-01T03:10:18.450Z,3.22
2022-08-01T03:12:48.252Z,3.20
2022-08-01T03:15:16.326Z,4.28
2022-08-01T03:17:45.452Z,4.10
2022-08-01T03:20:15.418Z,5.35
2022-08-01T03:22:44.627Z,5.07
2022-08-01T03:25:13.762Z,2.85
2022-08-01T03:27:42.957Z,4.82
2022-08-01T03:30:11.486Z,3.72
2022-08-01T03:32:38.182Z,3.50
2022-08-01T03:35:05.359Z,4.07
2022-08-01T03:37:54.296Z,3.50
2022-08-01T03:40:36.416Z,4.22
2022-08-01T03:43:16.896Z,4.70
2022-08-01T03:45:49.270Z,3.88
2022-08-01T03:48:19.335Z,3.67
2022-08-01T03:50:51.848Z,3.03
2022-08-01T03:53:23.161Z,5.97
2022-08-01T03:55:51.642Z,6.65
2022-08-01T03:58:18.651Z,3.15
2022-08-01T04:00:45.765Z,4.05
2022-08-01T04:03:13.962Z,3.60
2022-08-01T04:05:44.267Z,4.20
2022-08-01T04:08:10.901Z,4.13
2022-08-01T04:10:38.537Z,4.72
2022-08-01T04:13:05.068Z,4.53
2022-08-01T04:15:31.590Z,4.45
2022-08-01T04:17:58.124Z,5.22
2022-08-01T04:20:24.715Z,4.20
2022-08-01T04:22:51.354Z,4.70
2022-08-01T04:25:27.976Z,3.78
2022-08-01T04:27:55.932Z,5.97
2022-08-01T05:05:32.036Z,4.00
2022-08-01T05:08:03.871Z,3.55
2022-08-01T06:31:34.017Z,2.72
2022-08-01T06:36:28.446Z,5.18
2022-08-01T06:38:55.916Z,3.92
2022-08-01T06:41:23.192Z,3.63
2022-08-01T06:43:50.580Z,3.90
2022-08-01T06:46:17.014Z,3.55
2022-08-01T06:48:43.676Z,4.28
2022-08-01T06:51:10.253Z,4.35
2022-08-01T06:53:38.268Z,3.45
2022-08-01T06:56:05.545Z,3.95
2022-08-01T06:58:32.227Z,3.72
2022-08-01T07:00:59.539Z,4.70
2022-08-01T07:03:27.729Z,4.70
2022-08-01T07:06:13.046Z,5.00
2022-08-01T07:08:41.823Z,7.18
2022-08-01T07:11:08.920Z,5.05
2022-08-01T07:13:36.636Z,5.68
2022-08-01T07:16:10.701Z,4.40
2022-08-01T07:18:37.313Z,5.50
2022-08-01T07:21:05.978Z,4.15
2022-08-01T07:23:45.828Z,4.18
2022-08-01T07:26:13.680Z,4.32
2022-08-01T07:28:43.865Z,4.00
2022-08-01T07:31:10.843Z,4.90
2022-08-01T07:33:48.592Z,5.20
2022-08-01T07:36:16.924Z,5.13
2022-08-01T07:38:43.605Z,4.15
2022-08-01T07:41:10.229Z,4.90
2022-08-01T07:43:37.031Z,4.65
2022-08-01T07:46:06.677Z,4.40
2022-08-01T07:48:33.947Z,4.25
2022-08-01T07:51:00.540Z,7.20
2022-08-01T07:53:27.222Z,4.65
2022-08-01T07:55:53.712Z,4.55
2022-08-01T07:58:20.269Z,4.25
2022-08-01T08:00:46.787Z,6.13
2022-08-01T08:03:13.321Z,3.60
2022-08-01T08:05:58.990Z,3.90
2022-08-01T08:08:26.306Z,5.55
2022-08-01T08:10:52.940Z,4.07
2022-08-01T08:13:19.481Z,4.32
2022-08-01T08:15:48.275Z,8.93
2022-08-01T08:18:15.172Z,4.80
2022-08-01T08:20:41.681Z,3.90
2022-08-01T08:23:42.109Z,6.22
2022-08-01T08:26:13.307Z,3.92
2022-08-01T08:28:40.595Z,3.00
2022-08-01T08:31:07.458Z,3.25
2022-08-01T08:33:33.994Z,2.53
2022-08-01T08:36:00.532Z,4.15
2022-08-01T08:38:29.989Z,3.65
2022-08-01T08:40:57.797Z,5.63
2022-08-01T08:43:26.125Z,4.20
2022-08-01T08:46:00.093Z,5.38
2022-08-01T08:48:27.953Z,3.90
2022-08-01T08:50:56.194Z,3.72
2022-08-01T08:53:23.140Z,2.50
2022-08-01T08:55:56.223Z,3.75
2022-08-01T08:58:31.714Z,3.03
2022-08-01T09:00:58.918Z,1.95
2022-08-01T09:03:25.943Z,2.85
2022-08-01T09:05:52.611Z,2.08
2022-08-01T09:08:19.086Z,2.05
2022-08-01T09:10:45.600Z,1.48
2022-08-01T09:13:14.337Z,1.75
2022-08-01T09:15:54.610Z,2.55
2022-08-01T09:18:28.907Z,2.25
2022-08-01T09:21:07.601Z,2.58
2022-08-01T09:23:54.090Z,2.63
2022-08-01T09:26:36.102Z,3.28
2022-08-01T09:29:06.011Z,2.53
2022-08-01T09:31:42.203Z,1.80
2022-08-01T09:34:15.581Z,1.73
2022-08-01T09:36:54.373Z,2.10
2022-08-01T09:39:32.603Z,3.25
2022-08-01T09:42:02.101Z,2.05
2022-08-01T09:44:55.186Z,2.08
2022-08-01T09:47:23.780Z,3.22
2022-08-01T09:49:59.474Z,3.63
2022-08-01T09:52:28.969Z,1.38
2022-08-01T09:55:05.986Z,2.27
2022-08-01T09:57:32.726Z,2.03
2022-08-01T10:00:02.121Z,1.65
2022-08-01T10:02:40.957Z,1.95
2022-08-01T10:05:10.317Z,1.88
2022-08-01T10:07:55.575Z,1.57
2022-08-01T10:10:29.077Z,1.20
2022-08-01T10:12:58.149Z,3.05
2022-08-01T10:15:36.742Z,0.80
2022-08-01T10:18:16.130Z,2.58
2022-08-01T10:20:56.670Z,1.95
2022-08-01T10:23:39.890Z,1.65
2022-08-01T10:26:08.631Z,0.90
2022-08-01T10:28:39.254Z,1.40
2022-08-01T10:33:50.509Z,0.65
2022-08-01T10:36:25.397Z,0.90
2022-08-01T10:38:56.551Z,1.40
2022-08-01T10:41:25.081Z,2.00
2022-08-01T10:43:54.540Z,2.55
2022-08-01T10:46:21.751Z,1.48
2022-08-01T10:49:01.984Z,1.17
2022-08-01T10:54:15.706Z,0.63
2022-08-01T10:56:48.613Z,0.30
2022-08-01T10:59:49.875Z,0.45
2022-08-01T11:02:08.909Z,1.58
2022-08-01T11:04:41.353Z,1.23
2022-08-01T11:07:25.768Z,1.95
2022-08-01T11:10:17.435Z,0.43
2022-08-01T11:12:44.318Z,0.32
2022-08-01T11:15:10.952Z,0.35
2022-08-01T11:17:48.337Z,0.77
2022-08-01T11:20:18.249Z,0.60
2022-08-01T11:23:00.152Z,0.40
2022-08-01T11:26:04.740Z,0.50
2022-08-01T11:28:34.886Z,1.42
2022-08-01T11:31:11.704Z,1.30
2022-08-01T11:33:46.181Z,0.85
2022-08-01T11:36:14.599Z,2.17
2022-08-01T11:38:45.320Z,0.65
2022-08-01T11:41:38.602Z,2.50
2022-08-01T11:44:14.901Z,2.85
2022-08-01T11:47:07.354Z,2.17
2022-08-01T11:49:41.402Z,4.22
2022-08-01T11:52:17.437Z,3.33
2022-08-01T11:54:45.137Z,0.57
2022-08-01T11:57:19.148Z,2.90
2022-08-01T12:00:02.723Z,1.10
2022-08-01T12:02:35.321Z,3.13
2022-08-01T12:05:04.958Z,1.52
2022-08-01T12:07:33.692Z,0.50
2022-08-01T12:10:06.425Z,3.05
2022-08-01T12:12:34.723Z,0.98
2022-08-01T12:15:07.861Z,1.05
2022-08-01T12:17:58.308Z,3.00
2022-08-01T12:20:30.556Z,1.17
2022-08-01T12:23:00.750Z,1.73
2022-08-01T12:25:27.538Z,4.18
2022-08-01T12:27:56.565Z,2.05
2022-08-01T12:30:25.366Z,1.67
2022-08-01T12:32:54.025Z,1.35
2022-08-01T12:35:25.407Z,0.93
2022-08-01T12:37:58.859Z,0.43
2022-08-01T12:40:28.901Z,2.03
2022-08-01T12:45:29.737Z,3.45
2022-08-01T12:47:59.749Z,2.67
2022-08-01T12:50:29.412Z,0.73
2022-08-01T12:52:56.893Z,0.60
2022-08-01T12:55:34.339Z,2.00
2022-08-01T12:58:12.617Z,0.63
2022-08-01T13:00:45.330Z,1.95
2022-08-01T13:03:13.936Z,0.90
2022-08-01T13:05:55.461Z,1.17
2022-08-01T13:08:24.967Z,1.85
2022-08-01T13:11:00.754Z,2.80
2022-08-01T13:13:58.475Z,0.40
2022-08-01T13:16:43.291Z,1.20
2022-08-01T13:19:14.262Z,0.95
2022-08-01T13:21:55.068Z,1.55
2022-08-01T13:24:29.829Z,4.20
2022-08-01T13:27:01.671Z,1.65
2022-08-01T13:29:34.819Z,4.95
2022-08-01T13:32:27.604Z,0.43
2022-08-01T13:35:08.171Z,1.80
2022-08-01T13:37:37.264Z,3.25
2022-08-01T13:42:33.027Z,3.60
2022-08-01T13:44:59.658Z,0.73
2022-08-01T13:47:32.128Z,0.93
2022-08-01T13:50:02.834Z,3.33
2022-08-01T13:52:29.901Z,1.83
2022-08-01T13:54:56.470Z,1.90
2022-08-01T13:57:23.159Z,3.22
2022-08-01T13:59:50.023Z,2.00
2022-08-01T14:02:16.550Z,0.60
2022-08-01T14:04:43.185Z,3.33
2022-08-01T14:07:14.459Z,0.70
2022-08-01T14:09:44.917Z,0.38
2022-08-01T14:12:24.413Z,3.47
2022-08-01T14:14:50.952Z,1.15
2022-08-01T14:17:17.432Z,1.02
2022-08-01T14:19:46.358Z,2.47
2022-08-01T14:22:13.016Z,0.43
2022-08-01T14:24:39.516Z,1.00
2022-08-01T14:27:07.732Z,1.02
2022-08-01T14:30:00.270Z,1.13
2022-08-01T14:32:24.431Z,1.73
2022-08-01T14:34:57.000Z,2.60
2022-08-01T14:37:28.600Z,2.38
2022-08-01T14:39:56.997Z,1.50
2022-08-01T14:42:25.591Z,2.53
2022-08-01T14:44:52.165Z,1.15
2022-08-01T14:47:22.116Z,0.93
2022-08-01T14:52:15.523Z,3.50
2022-08-01T14:54:42.104Z,1.92
2022-08-01T14:57:08.677Z,3.38
2022-08-01T14:59:35.983Z,0.70
2022-08-01T15:02:02.881Z,1.60
2022-08-01T15:04:29.492Z,0.98
2022-08-01T15:06:56.041Z,1.52
2022-08-01T15:09:24.186Z,1.27
2022-08-01T15:11:50.667Z,1.40
2022-08-01T15:14:35.910Z,4.25
2022-08-01T15:17:02.432Z,1.15
2022-08-01T15:19:28.932Z,0.43
2022-08-01T15:21:55.437Z,0.95
2022-08-01T15:24:21.877Z,1.30
2022-08-01T15:26:48.407Z,0.57
2022-08-01T15:29:16.502Z,0.50
2022-08-01T15:31:43.022Z,0.60
2022-08-01T15:34:09.553Z,1.08
2022-08-01T15:36:36.146Z,1.67
2022-08-01T15:39:02.669Z,0.68
2022-08-01T15:41:29.214Z,0.60
2022-08-01T15:43:56.198Z,1.55
2022-08-01T15:46:23.460Z,1.45
2022-08-01T15:48:50.013Z,1.63
2022-08-01T15:51:16.564Z,0.57
2022-08-01T15:53:43.636Z,2.33
2022-08-01T15:56:10.215Z,3.10
2022-08-01T15:58:36.742Z,1.45
2022-08-01T16:01:03.389Z,2.25
2022-08-01T16:03:29.935Z,0.60
2022-08-01T16:05:56.594Z,0.77
2022-08-01T16:08:23.192Z,0.85
2022-08-01T16:10:49.732Z,6.40
2022-08-01T16:13:16.842Z,3.47
2022-08-01T16:15:43.403Z,0.60
2022-08-01T16:18:14.554Z,1.50
2022-08-01T16:20:45.576Z,1.40
2022-08-01T16:23:14.670Z,0.70
2022-08-01T16:25:41.540Z,0.80
2022-08-01T16:28:09.894Z,2.58
2022-08-01T16:30:37.377Z,1.13
2022-08-01T16:33:45.237Z,0.95
2022-08-01T16:36:04.373Z,0.52
2022-08-01T16:38:31.687Z,0.77
2022-08-01T16:40:58.219Z,1.25
2022-08-01T16:43:24.766Z,1.60
2022-08-01T16:45:51.440Z,0.70
2022-08-01T16:48:20.799Z,0.40
2022-08-01T16:50:53.011Z,1.20
2022-08-01T16:53:21.227Z,1.67
2022-08-01T16:55:50.304Z,1.92
2022-08-01T16:58:23.529Z,1.30
2022-08-01T17:00:57.096Z,0.68
2022-08-01T17:03:47.101Z,2.37
2022-08-01T17:06:11.417Z,1.33
2022-08-01T17:08:46.932Z,1.85
2022-08-01T17:11:15.039Z,1.00
2022-08-01T17:13:41.879Z,0.52
2022-08-01T17:16:10.037Z,0.40
2022-08-01T17:18:36.986Z,1.40
2022-08-01T17:21:03.759Z,1.42
2022-08-01T17:23:31.880Z,0.77
2022-08-01T17:25:59.154Z,1.35
2022-08-01T17:28:26.271Z,0.75
2022-08-01T17:30:52.959Z,0.93
2022-08-01T17:33:19.435Z,0.95
2022-08-01T17:35:46.025Z,0.50
2022-08-01T17:38:12.571Z,1.00
2022-08-01T17:40:40.750Z,1.13
2022-08-01T17:43:08.074Z,0.70
2022-08-01T17:45:38.196Z,0.32
2022-08-01T17:48:17.899Z,1.33
2022-08-01T17:50:46.961Z,0.45
2022-08-01T17:53:20.864Z,1.65
2022-08-01T17:55:56.483Z,1.50
2022-08-01T17:58:36.664Z,1.45
2022-08-01T18:01:17.054Z,1.25
2022-08-01T18:03:44.723Z,0.70
2022-08-01T18:06:17.776Z,0.50
2022-08-01T18:08:47.892Z,0.63
2022-08-01T18:11:16.611Z,1.30
2022-08-01T18:13:43.515Z,2.55
2022-08-01T18:16:13.203Z,0.70
2022-08-01T18:18:41.832Z,1.88
2022-08-01T18:21:08.838Z,0.50
2022-08-01T18:23:38.376Z,0.60
2022-08-01T18:26:09.703Z,1.37
2022-08-01T18:28:41.618Z,1.83
2022-08-01T18:31:11.969Z,0.40
2022-08-01T18:33:38.976Z,0.60
2022-08-01T18:36:06.807Z,2.17
2022-08-01T18:38:44.195Z,0.50
2022-08-01T18:41:14.399Z,1.77
2022-08-01T18:43:41.444Z,0.93
2022-08-01T18:46:08.473Z,0.75
2022-08-01T18:48:37.302Z,0.38
2022-08-01T18:51:04.285Z,0.40
2022-08-01T18:53:36.118Z,0.30
2022-08-01T18:56:04.343Z,1.52
2022-08-01T18:58:33.899Z,1.33
2022-08-01T19:01:03.448Z,0.63
2022-08-01T19:03:30.181Z,2.30
2022-08-01T19:05:57.577Z,1.05
2022-08-01T19:08:24.076Z,0.60
2022-08-01T19:10:50.606Z,0.90
2022-08-01T19:13:17.122Z,0.70
2022-08-01T19:15:44.280Z,0.60
2022-08-01T19:18:10.802Z,0.98
2022-08-01T19:20:42.754Z,1.23
2022-08-01T19:23:28.004Z,1.50
2022-08-01T19:25:57.899Z,1.33
2022-08-01T19:28:26.764Z,1.10
2022-08-01T19:30:55.915Z,1.17
2022-08-01T19:33:22.632Z,0.82
2022-08-01T19:35:52.967Z,0.47
2022-08-01T19:38:20.167Z,0.85
2022-08-01T19:40:46.709Z,0.70
2022-08-01T19:43:14.643Z,1.85
2022-08-01T19:45:41.521Z,0.60
2022-08-01T19:48:08.184Z,1.00
2022-08-01T19:50:35.958Z,0.77
2022-08-01T19:53:03.643Z,1.33
2022-08-01T19:55:31.235Z,1.42
2022-08-01T20:00:48.443Z,1.38
2022-08-01T20:03:17.896Z,1.73
2022-08-01T20:05:44.849Z,0.70
2022-08-01T20:08:12.301Z,1.10
2022-08-01T20:10:41.117Z,0.77
2022-08-01T20:13:09.739Z,0.85
2022-08-01T20:15:39.020Z,3.35
2022-08-01T20:18:05.939Z,0.80
2022-08-01T20:20:33.325Z,0.75
2022-08-01T20:23:02.638Z,1.35
2022-08-01T20:25:40.306Z,1.10
2022-08-01T20:28:09.807Z,1.48
2022-08-01T20:30:36.958Z,0.98
2022-08-01T20:33:05.894Z,0.90
2022-08-01T20:35:51.589Z,2.75
2022-08-01T20:38:25.214Z,0.65
2022-08-01T20:40:58.539Z,3.45
2022-08-01T20:43:27.350Z,1.45
2022-08-01T20:45:54.471Z,0.95
2022-08-01T20:48:21.339Z,0.93
2022-08-01T20:51:08.154Z,2.10
2022-08-01T20:53:40.957Z,0.85
2022-08-01T20:56:40.454Z,1.65
2022-08-01T20:59:54.924Z,2.60
2022-08-01T21:02:14.221Z,1.20
2022-08-01T21:05:02.718Z,1.13
2022-08-01T21:07:43.031Z,1.80
2022-08-01T21:10:12.566Z,1.00
2022-08-01T21:12:49.315Z,2.20
2022-08-01T21:15:23.122Z,1.25
2022-08-01T21:18:03.172Z,3.03
2022-08-01T21:20:33.116Z,1.65
2022-08-01T21:23:22.181Z,1.60
2022-08-01T21:25:49.039Z,2.42
2022-08-01T21:28:15.950Z,3.85
2022-08-01T21:30:55.446Z,0.80
2022-08-01T21:33:24.265Z,1.55
2022-08-01T21:35:55.529Z,3.28
2022-08-01T21:38:23.954Z,1.20
2022-08-01T21:40:53.114Z,1.40
2022-08-01T21:43:20.506Z,0.98
2022-08-01T21:45:57.756Z,1.15
2022-08-01T21:48:25.878Z,1.85
2022-08-01T21:51:01.175Z,3.08
2022-08-01T21:53:47.233Z,3.05
2022-08-01T21:57:15.486Z,1.42
2022-08-01T22:00:02.256Z,2.92
2022-08-01T22:02:36.821Z,1.75
2022-08-01T22:05:09.897Z,1.45
2022-08-01T22:07:48.253Z,1.50
2022-08-01T22:10:18.243Z,1.80
2022-08-01T22:12:46.133Z,2.95
2022-08-01T22:15:13.989Z,1.85
2022-08-01T22:17:41.331Z,1.85
2022-08-01T22:20:08.765Z,2.45
2022-08-01T22:22:50.914Z,2.20
2022-08-01T22:25:20.325Z,1.52
2022-08-01T22:28:08.341Z,1.52
2022-08-01T22:30:35.252Z,4.30
2022-08-01T22:33:07.407Z,2.30
2022-08-01T22:35:45.702Z,2.50
2022-08-01T22:38:12.497Z,2.40
2022-08-01T22:40:46.063Z,1.98
2022-08-01T22:43:23.769Z,3.33
2022-08-01T22:46:16.535Z,2.20
2022-08-01T22:48:56.306Z,2.33
2022-08-01T22:51:55.766Z,2.77
2022-08-01T22:54:35.056Z,2.92
2022-08-01T22:57:07.407Z,1.90
2022-08-01T23:00:00.332Z,2.88
2022-08-01T23:02:29.805Z,2.15
2022-08-01T23:05:04.337Z,1.60
2022-08-01T23:07:45.971Z,1.58
2022-08-01T23:10:12.687Z,2.72
2022-08-01T23:12:39.597Z,1.73
2022-08-01T23:15:07.926Z,1.50
2022-08-01T23:17:35.013Z,3.28
2022-08-01T23:20:06.434Z,2.72
2022-08-01T23:22:35.039Z,1.60
2022-08-01T23:25:06.465Z,1.75
2022-08-01T23:27:55.980Z,1.33
2022-08-01T23:30:28.398Z,1.45
2022-08-01T23:32:55.130Z,2.00
2022-08-01T23:35:21.931Z,2.92
2022-08-01T23:37:50.939Z,1.48
2022-08-01T23:40:18.495Z,2.03
2022-08-01T23:42:45.251Z,2.15
2022-08-01T23:45:11.792Z,1.98
2022-08-01T23:47:38.261Z,2.03
2022-08-01T23:50:05.211Z,1.85
2022-08-01T23:52:32.420Z,2.00
2022-08-01T23:55:11.489Z,1.45
2022-08-01T23:57:41.881Z,2.20
